Time,TemperatureF,DewpointF,PressureIn,WindDirection,WindDirectionDegrees,WindSpeedMPH,WindSpeedGustMPH,Humidity,HourlyPrecipIn,Conditions,Clouds,dailyrainin,SolarRadiationWatts/m^2,SoftwareType,DateUTC
2013-03-23 00:15:00,23.9,15.2,30.47,NW,310,2.0,4.0,69,0.00,CLR,SKC,0.00,0.0,WeatherDisplay:10.37,2013-03-23 06:15:00,
2013-03-23 00:45:00,22.8,13.5,30.47,WNW,287,0.0,1.0,67,0.00,CLR,SKC,0.00,0.0,WeatherDisplay:10.37,2013-03-23 06:45:00,
2013-03-23 01:15:00,22.4,11.3,30.47,WSW,246,0.0,1.0,62,0.00,CLR,SKC,0.00,0.0,WeatherDisplay:10.37,2013-03-23 07:15:00,
2013-03-23 01:45:00,21.5,12.2,30.48,WSW,244,1.0,2.0,67,0.00,CLR,SKC,0.00,0.0,WeatherDisplay:10.37,2013-03-23 07:45:00,
2013-03-23 02:15:00,20.9,12.0,30.48,SW,220,2.0,4.0,68,0.00,CLR,SKC,0.00,0.0,WeatherDisplay:10.37,2013-03-23 08:15:00,
2013-03-23 02:45:00,21.0,9.3,30.49,SW,228,3.0,7.0,60,0.00,CLR,SKC,0.00,0.0,WeatherDisplay:10.37,2013-03-23 08:45:00,
2013-03-23 03:15:00,20.1,9.2,30.50,SW,228,2.0,7.0,62,0.00,CLR,SKC,0.00,0.0,WeatherDisplay:10.37,2013-03-23 09:15:00,
2013-03-23 03:45:00,19.9,9.0,30.48,SW,224,0.0,2.0,62,0.00,CLR,SKC,0.00,0.0,WeatherDisplay:10.37,2013-03-23 09:45:00,
2013-03-23 04:15:00,19.6,9.3,30.48,SSE,157,2.0,5.0,64,0.00,CLR,SKC,0.00,0.0,WeatherDisplay:10.37,2013-03-23 10:15:00,
2013-03-23 04:45:00,20.4,9.1,30.49,South,180,1.0,3.0,61,0.00,CLR,SKC,0.00,0.0,WeatherDisplay:10.37,2013-03-23 10:45:00,
2013-03-23 05:15:00,20.2,9.2,30.49,SSW,210,0.0,3.0,62,0.00,CLR,SKC,0.00,0.0,WeatherDisplay:10.37,2013-03-23 11:15:00,
2013-03-23 05:45:00,20.1,9.9,30.51,SW,215,1.0,6.0,64,0.00,CLR,SKC,0.00,0.0,WeatherDisplay:10.37,2013-03-23 11:45:00,
2013-03-23 06:15:00,19.4,10.2,30.52,SW,226,2.0,4.0,67,0.00,CLR,SKC,0.00,0.0,WeatherDisplay:10.37,2013-03-23 12:15:00,
2013-03-23 06:45:00,20.6,10.7,30.54,WSW,254,2.0,6.0,65,0.00,CLR,SKC,0.00,0.0,WeatherDisplay:10.37,2013-03-23 12:45:00,
2013-03-23 07:15:00,20.9,11.0,30.56,SW,227,2.0,6.0,65,0.00,OVC,SKC,0.00,0.0,WeatherDisplay:10.37,2013-03-23 13:15:00,
2013-03-23 07:45:00,20.5,10.9,30.58,WSW,237,3.0,6.0,66,0.00,BKN,SKC,0.00,12.0,WeatherDisplay:10.37,2013-03-23 13:45:00,
2013-03-23 08:15:00,20.6,11.7,30.59,SSW,211,3.0,9.0,68,0.00,BKN,SKC,0.00,47.0,WeatherDisplay:10.37,2013-03-23 14:15:00,
2013-03-23 08:45:00,20.8,12.2,30.61,SW,215,5.0,7.0,69,0.00,BKN,SKC,0.00,77.0,WeatherDisplay:10.37,2013-03-23 14:45:00,
2013-03-23 09:15:00,21.9,11.2,30.62,SW,222,2.0,7.0,63,0.00,BKN,SKC,0.00,83.0,WeatherDisplay:10.37,2013-03-23 15:15:00,
2013-03-23 09:45:00,23.4,11.5,30.63,SW,217,3.0,9.0,60,0.00,CLR,SKC,0.00,127.0,WeatherDisplay:10.37,2013-03-23 15:45:00,
2013-03-23 10:15:00,23.7,11.1,30.64,SW,215,2.0,10.0,58,0.00,BKN,SKC,0.00,223.0,WeatherDisplay:10.37,2013-03-23 16:15:00,
2013-03-23 10:45:00,25.4,11.0,30.65,SW,224,3.0,7.0,54,0.00,SCT,SKC,0.00,499.0,WeatherDisplay:10.37,2013-03-23 16:45:00,
2013-03-23 11:15:00,26.8,12.8,30.66,SSW,210,7.0,10.0,55,0.00,CLR,SKC,0.00,343.0,WeatherDisplay:10.37,2013-03-23 17:15:00,
2013-03-23 11:45:00,27.5,13.0,30.67,SSW,213,8.0,15.0,54,0.00,CLR,SKC,0.00,874.0,WeatherDisplay:10.37,2013-03-23 17:45:00,
2013-03-23 12:15:00,28.3,14.6,30.67,SSW,209,6.0,16.0,56,0.00,CLR,SKC,0.00,831.0,WeatherDisplay:10.37,2013-03-23 18:15:00,
2013-03-23 12:45:00,26.9,14.1,30.67,SSW,206,7.0,12.0,58,0.00,SCT,SKC,0.00,613.0,WeatherDisplay:10.37,2013-03-23 18:45:00,
2013-03-23 13:15:00,28.5,13.9,30.67,SSW,206,5.0,12.0,54,0.00,BKN,SKC,0.00,320.0,WeatherDisplay:10.37,2013-03-23 19:15:00,
2013-03-23 13:45:00,28.6,13.1,30.66,WSW,248,2.0,9.0,52,0.00,BKN,SKC,0.00,301.0,WeatherDisplay:10.37,2013-03-23 19:45:00,
2013-03-23 14:15:00,28.6,13.2,30.66,NE,34,2.0,4.0,52,0.00,BKN,SKC,0.00,276.0,WeatherDisplay:10.37,2013-03-23 20:15:00,
2013-03-23 14:45:00,29.0,15.7,30.65,NNE,27,3.0,9.0,57,0.00,FEW,SKC,0.00,772.0,WeatherDisplay:10.37,2013-03-23 20:45:00,
2013-03-23 15:15:00,28.6,16.5,30.66,WNW,287,10.0,15.0,60,0.00,BKN,SKC,0.00,163.0,WeatherDisplay:10.37,2013-03-23 21:15:00,
2013-03-23 15:45:00,28.4,20.2,30.65,South,175,5.0,8.0,71,0.00,CLR,SKC,0.00,812.0,WeatherDisplay:10.37,2013-03-23 21:45:00,
2013-03-23 16:15:00,28.2,18.3,30.65,ENE,62,7.0,13.0,66,0.00,BKN,SKC,0.00,250.0,WeatherDisplay:10.37,2013-03-23 22:15:00,
2013-03-23 16:45:00,28.9,17.5,30.65,East,83,7.0,12.0,62,0.00,SCT,SKC,0.00,276.0,WeatherDisplay:10.37,2013-03-23 22:45:00,
2013-03-23 17:15:00,29.4,15.6,30.65,ENE,58,1.0,4.0,56,0.00,BKN,SKC,0.00,162.0,WeatherDisplay:10.37,2013-03-23 23:15:00,
2013-03-23 17:45:00,29.9,14.4,30.65,North,7,2.0,5.0,52,0.00,SCT,SKC,0.00,223.0,WeatherDisplay:10.37,2013-03-23 23:45:00,
2013-03-23 18:15:00,29.4,16.9,30.65,SSW,195,3.0,5.0,59,0.00,FEW,SKC,0.00,163.0,WeatherDisplay:10.37,2013-03-24 00:15:00,
2013-03-23 18:45:00,29.0,17.2,30.67,West,265,6.0,12.0,61,0.00,CLR,SKC,0.00,102.0,WeatherDisplay:10.37,2013-03-24 00:45:00,
2013-03-23 19:15:00,29.1,14.5,30.68,West,275,9.0,12.0,54,0.00,SCT,SKC,0.00,28.0,WeatherDisplay:10.37,2013-03-24 01:15:00,
2013-03-23 19:45:00,27.7,16.7,30.68,NW,311,2.0,4.0,63,0.00,OVC,SKC,0.00,0.0,WeatherDisplay:10.37,2013-03-24 01:45:00,
2013-03-23 20:15:00,26.9,15.6,30.69,NW,309,1.0,3.0,62,0.00,CLR,SKC,0.00,0.0,WeatherDisplay:10.37,2013-03-24 02:15:00,
2013-03-23 20:45:00,26.2,15.3,30.69,NW,311,0.0,1.0,63,0.00,CLR,SKC,0.00,0.0,WeatherDisplay:10.37,2013-03-24 02:45:00,
2013-03-23 21:15:00,26.6,13.8,30.70,NW,311,0.0,1.0,58,0.00,CLR,SKC,0.00,0.0,WeatherDisplay:10.37,2013-03-24 03:15:00,
2013-03-23 21:45:00,25.3,15.8,30.71,NW,311,0.0,1.0,67,0.00,CLR,SKC,0.00,0.0,WeatherDisplay:10.37,2013-03-24 03:45:00,
2013-03-23 22:15:00,24.1,15.1,30.70,ENE,61,2.0,3.0,68,0.00,CLR,SKC,0.00,0.0,WeatherDisplay:10.37,2013-03-24 04:15:00,
2013-03-23 22:45:00,23.7,15.0,30.70,East,92,0.0,1.0,69,0.00,CLR,SKC,0.00,0.0,WeatherDisplay:10.37,2013-03-24 04:45:00,
2013-03-23 23:15:00,22.7,13.8,30.70,East,92,0.0,2.0,68,0.00,CLR,SKC,0.00,0.0,WeatherDisplay:10.37,2013-03-24 05:15:00,
2013-03-23 23:45:00,22.8,12.5,30.71,ESE,114,0.0,2.0,64,0.00,CLR,SKC,0.00,0.0,WeatherDisplay:10.37,2013-03-24 05:45:00,